sensor_id;sensor_type;location;lat;lon;timestamp;pressure;altitude;pressure_sealevel;temperature;humidity
67545;BME280;54380;47.770;11.150;2023-05-20T00:00:55;94829.19;;;13.66;61.01
67545;BME280;54380;47.770;11.150;2023-05-20T00:03:22;94832.66;;;13.67;60.79
67545;BME280;54380;47.770;11.150;2023-05-20T00:05:52;94825.19;;;13.69;60.92
67545;BME280;54380;47.770;11.150;2023-05-20T00:08:19;94821.75;;;13.68;61.30
67545;BME280;54380;47.770;11.150;2023-05-20T00:10:45;94812.47;;;13.66;61.00
67545;BME280;54380;47.770;11.150;2023-05-20T00:13:12;94812.78;;;13.64;61.29
67545;BME280;54380;47.770;11.150;2023-05-20T00:15:38;94808.50;;;13.63;61.25
67545;BME280;54380;47.770;11.150;2023-05-20T00:18:06;94810.38;;;13.63;61.04
67545;BME280;54380;47.770;11.150;2023-05-20T00:20:32;94809.59;;;13.62;61.34
67545;BME280;54380;47.770;11.150;2023-05-20T00:23:00;94801.63;;;13.62;61.64
67545;BME280;54380;47.770;11.150;2023-05-20T00:25:27;94813.56;;;13.59;61.73
67545;BME280;54380;47.770;11.150;2023-05-20T00:27:56;94805.63;;;13.54;62.01
67545;BME280;54380;47.770;11.150;2023-05-20T00:30:22;94801.13;;;13.50;62.08
67545;BME280;54380;47.770;11.150;2023-05-20T00:32:49;94796.38;;;13.47;62.14
67545;BME280;54380;47.770;11.150;2023-05-20T00:35:16;94798.25;;;13.46;62.25
67545;BME280;54380;47.770;11.150;2023-05-20T00:37:43;94805.13;;;13.47;61.94
67545;BME280;54380;47.770;11.150;2023-05-20T00:40:12;94798.47;;;13.50;62.14
67545;BME280;54380;47.770;11.150;2023-05-20T00:42:41;94804.06;;;13.48;61.83
67545;BME280;54380;47.770;11.150;2023-05-20T00:45:08;94797.94;;;13.48;61.90
67545;BME280;54380;47.770;11.150;2023-05-20T00:47:34;94791.31;;;13.50;61.56
67545;BME280;54380;47.770;11.150;2023-05-20T00:50:06;94797.44;;;13.51;61.74
67545;BME280;54380;47.770;11.150;2023-05-20T00:52:33;94794.50;;;13.52;62.20
67545;BME280;54380;47.770;11.150;2023-05-20T00:55:00;94792.13;;;13.51;62.04
67545;BME280;54380;47.770;11.150;2023-05-20T00:57:28;94787.63;;;13.46;62.59
67545;BME280;54380;47.770;11.150;2023-05-20T00:59:55;94785.00;;;13.41;62.72
67545;BME280;54380;47.770;11.150;2023-05-20T01:02:22;94784.72;;;13.37;62.13
67545;BME280;54380;47.770;11.150;2023-05-20T01:04:49;94781.28;;;13.37;62.33
67545;BME280;54380;47.770;11.150;2023-05-20T01:07:16;94780.75;;;13.40;62.61
67545;BME280;54380;47.770;11.150;2023-05-20T01:09:44;94772.78;;;13.40;62.18
67545;BME280;54380;47.770;11.150;2023-05-20T01:12:12;94779.69;;;13.41;62.01
67545;BME280;54380;47.770;11.150;2023-05-20T01:14:42;94766.97;;;13.43;62.48
67545;BME280;54380;47.770;11.150;2023-05-20T01:17:12;94770.41;;;13.44;62.38
67545;BME280;54380;47.770;11.150;2023-05-20T01:19:43;94771.19;;;13.44;62.42
67545;BME280;54380;47.770;11.150;2023-05-20T01:22:10;94771.97;;;13.45;62.48
67545;BME280;54380;47.770;11.150;2023-05-20T01:24:43;94766.16;;;13.43;62.53
67545;BME280;54380;47.770;11.150;2023-05-20T01:27:10;94760.59;;;13.39;62.37
67545;BME280;54380;47.770;11.150;2023-05-20T01:29:40;94763.50;;;13.37;62.68
67545;BME280;54380;47.770;11.150;2023-05-20T01:32:08;94763.28;;;13.34;62.69
67545;BME280;54380;47.770;11.150;2023-05-20T01:34:37;94758.50;;;13.31;62.83
67545;BME280;54380;47.770;11.150;2023-05-20T01:37:04;94755.63;;;13.27;62.53
67545;BME280;54380;47.770;11.150;2023-05-20T01:39:33;94757.97;;;13.29;62.48
67545;BME280;54380;47.770;11.150;2023-05-20T01:42:03;94756.13;;;13.29;62.61
67545;BME280;54380;47.770;11.150;2023-05-20T01:44:30;94761.72;;;13.28;62.63
67545;BME280;54380;47.770;11.150;2023-05-20T01:46:58;94769.34;;;13.24;62.95
67545;BME280;54380;47.770;11.150;2023-05-20T01:49:25;94766.47;;;13.21;63.06
67545;BME280;54380;47.770;11.150;2023-05-20T01:51:51;94768.06;;;13.16;62.86
67545;BME280;54380;47.770;11.150;2023-05-20T01:54:18;94763.03;;;13.15;62.92
67545;BME280;54380;47.770;11.150;2023-05-20T01:56:45;94765.44;;;13.11;62.98
67545;BME280;54380;47.770;11.150;2023-05-20T01:59:14;94763.59;;;13.07;62.82
67545;BME280;54380;47.770;11.150;2023-05-20T02:01:41;94757.75;;;13.05;62.86
67545;BME280;54380;47.770;11.150;2023-05-20T02:04:08;94764.66;;;13.01;63.25
67545;BME280;54380;47.770;11.150;2023-05-20T02:06:34;94758.56;;;12.95;63.41
67545;BME280;54380;47.770;11.150;2023-05-20T02:09:01;94758.31;;;12.91;63.11
67545;BME280;54380;47.770;11.150;2023-05-20T02:11:29;94760.41;;;12.89;63.39
67545;BME280;54380;47.770;11.150;2023-05-20T02:13:55;94769.16;;;12.85;63.75
67545;BME280;54380;47.770;11.150;2023-05-20T02:16:24;94762.56;;;12.77;63.66
67545;BME280;54380;47.770;11.150;2023-05-20T02:18:51;94766.81;;;12.73;63.81
67545;BME280;54380;47.770;11.150;2023-05-20T02:21:18;94766.25;;;12.71;64.03
67545;BME280;54380;47.770;11.150;2023-05-20T02:23:45;94757.28;;;12.72;63.72
67545;BME280;54380;47.770;11.150;2023-05-20T02:26:12;94755.69;;;12.71;63.76
67545;BME280;54380;47.770;11.150;2023-05-20T02:28:38;94760.72;;;12.72;63.96
67545;BME280;54380;47.770;11.150;2023-05-20T02:31:08;94757.28;;;12.72;63.91
67545;BME280;54380;47.770;11.150;2023-05-20T02:33:37;94758.06;;;12.72;63.64
67545;BME280;54380;47.770;11.150;2023-05-20T02:36:04;94760.44;;;12.74;63.99
67545;BME280;54380;47.770;11.150;2023-05-20T02:38:32;94761.25;;;12.69;64.37
67545;BME280;54380;47.770;11.150;2023-05-20T02:40:59;94767.34;;;12.65;64.20
67545;BME280;54380;47.770;11.150;2023-05-20T02:43:25;94767.59;;;12.63;64.28
67545;BME280;54380;47.770;11.150;2023-05-20T02:45:52;94774.22;;;12.66;64.07
67545;BME280;54380;47.770;11.150;2023-05-20T02:48:19;94767.88;;;12.67;63.96
67545;BME280;54380;47.770;11.150;2023-05-20T02:50:47;94759.66;;;12.68;64.06
67545;BME280;54380;47.770;11.150;2023-05-20T02:53:14;94764.69;;;12.70;63.85
67545;BME280;54380;47.770;11.150;2023-05-20T02:55:41;94755.97;;;12.69;63.96
67545;BME280;54380;47.770;11.150;2023-05-20T02:58:07;94762.84;;;12.70;63.63
67545;BME280;54380;47.770;11.150;2023-05-20T03:00:34;94750.66;;;12.69;63.62
67545;BME280;54380;47.770;11.150;2023-05-20T03:03:06;94756.75;;;12.70;63.83
67545;BME280;54380;47.770;11.150;2023-05-20T03:05:33;94759.13;;;12.66;63.92
67545;BME280;54380;47.770;11.150;2023-05-20T03:08:06;94756.75;;;12.60;63.95
67545;BME280;54380;47.770;11.150;2023-05-20T03:10:35;94757.53;;;12.50;64.10
67545;BME280;54380;47.770;11.150;2023-05-20T03:13:02;94759.66;;;12.48;63.94
67545;BME280;54380;47.770;11.150;2023-05-20T03:15:30;94759.94;;;12.46;63.88
67545;BME280;54380;47.770;11.150;2023-05-20T03:17:57;94755.16;;;12.43;63.99
67545;BME280;54380;47.770;11.150;2023-05-20T03:20:24;94751.44;;;12.39;64.28
67545;BME280;54380;47.770;11.150;2023-05-20T03:22:53;94755.16;;;12.33;63.99
67545;BME280;54380;47.770;11.150;2023-05-20T03:25:21;94755.69;;;12.25;63.57
67545;BME280;54380;47.770;11.150;2023-05-20T03:27:47;94753.56;;;12.12;63.95
67545;BME280;54380;47.770;11.150;2023-05-20T03:30:14;94760.94;;;11.99;64.18
67545;BME280;54380;47.770;11.150;2023-05-20T03:32:41;94754.81;;;11.89;64.52
67545;BME280;54380;47.770;11.150;2023-05-20T03:35:08;94757.66;;;11.82;64.36
67545;BME280;54380;47.770;11.150;2023-05-20T03:37:35;94751.59;;;11.81;64.72
67545;BME280;54380;47.770;11.150;2023-05-20T03:40:02;94753.19;;;11.82;64.72
67545;BME280;54380;47.770;11.150;2023-05-20T03:42:33;94748.94;;;11.81;64.71
67545;BME280;54380;47.770;11.150;2023-05-20T03:45:00;94755.31;;;11.80;64.53
67545;BME280;54380;47.770;11.150;2023-05-20T03:47:30;94766.13;;;11.79;64.61
67545;BME280;54380;47.770;11.150;2023-05-20T03:49:57;94760.84;;;11.79;64.86
67545;BME280;54380;47.770;11.150;2023-05-20T03:52:24;94758.72;;;11.81;64.68
67545;BME280;54380;47.770;11.150;2023-05-20T03:54:51;94754.28;;;11.86;64.86
67545;BME280;54380;47.770;11.150;2023-05-20T03:57:17;94758.78;;;11.91;64.59
67545;BME280;54380;47.770;11.150;2023-05-20T03:59:46;94763.56;;;11.94;64.23
67545;BME280;54380;47.770;11.150;2023-05-20T04:02:13;94764.34;;;11.95;64.37
67545;BME280;54380;47.770;11.150;2023-05-20T04:04:39;94754.56;;;11.90;64.24
67545;BME280;54380;47.770;11.150;2023-05-20T04:07:08;94750.28;;;11.84;64.36
67545;BME280;54380;47.770;11.150;2023-05-20T04:09:35;94751.56;;;11.76;64.42
67545;BME280;54380;47.770;11.150;2023-05-20T04:12:02;94755.81;;;11.72;64.41
67545;BME280;54380;47.770;11.150;2023-05-20T04:14:30;94750.78;;;11.71;64.64
67545;BME280;54380;47.770;11.150;2023-05-20T04:17:02;94752.38;;;11.72;65.03
67545;BME280;54380;47.770;11.150;2023-05-20T04:19:31;94750.22;;;11.69;65.05
67545;BME280;54380;47.770;11.150;2023-05-20T04:21:57;94759.47;;;11.66;65.00
67545;BME280;54380;47.770;11.150;2023-05-20T04:24:24;94766.38;;;11.67;65.43
67545;BME280;54380;47.770;11.150;2023-05-20T04:26:50;94755.00;;;11.67;65.22
67545;BME280;54380;47.770;11.150;2023-05-20T04:29:18;94753.16;;;11.67;65.30
67545;BME280;54380;47.770;11.150;2023-05-20T04:31:44;94754.19;;;11.71;65.19
67545;BME280;54380;47.770;11.150;2023-05-20T04:34:13;94749.44;;;11.73;65.58
67545;BME280;54380;47.770;11.150;2023-05-20T04:36:40;94752.66;;;11.80;65.29
67545;BME280;54380;47.770;11.150;2023-05-20T04:39:07;94747.69;;;11.89;65.24
67545;BME280;54380;47.770;11.150;2023-05-20T04:41:34;94748.75;;;11.93;65.18
67545;BME280;54380;47.770;11.150;2023-05-20T04:44:01;94751.91;;;11.95;65.25
67545;BME280;54380;47.770;11.150;2023-05-20T04:46:29;94746.34;;;11.92;65.16
67545;BME280;54380;47.770;11.150;2023-05-20T04:48:57;94750.34;;;11.94;65.31
67545;BME280;54380;47.770;11.150;2023-05-20T04:51:25;94746.38;;;11.97;65.21
67545;BME280;54380;47.770;11.150;2023-05-20T04:53:51;94745.31;;;11.98;65.14
67545;BME280;54380;47.770;11.150;2023-05-20T04:56:18;94749.81;;;12.02;65.02
67545;BME280;54380;47.770;11.150;2023-05-20T04:58:45;94749.81;;;12.07;64.84
67545;BME280;54380;47.770;11.150;2023-05-20T05:01:11;94747.72;;;12.15;64.78
67545;BME280;54380;47.770;11.150;2023-05-20T05:03:40;94746.94;;;12.19;64.82
67545;BME280;54380;47.770;11.150;2023-05-20T05:06:07;94745.88;;;12.25;64.98
67545;BME280;54380;47.770;11.150;2023-05-20T05:08:34;94745.34;;;12.28;65.13
67545;BME280;54380;47.770;11.150;2023-05-20T05:11:03;94737.16;;;12.30;65.26
67545;BME280;54380;47.770;11.150;2023-05-20T05:13:30;94730.00;;;12.36;65.13
67545;BME280;54380;47.770;11.150;2023-05-20T05:15:57;94732.91;;;12.44;64.66
67545;BME280;54380;47.770;11.150;2023-05-20T05:18:25;94739.78;;;12.56;64.58
67545;BME280;54380;47.770;11.150;2023-05-20T05:20:57;94743.75;;;12.63;64.15
67545;BME280;54380;47.770;11.150;2023-05-20T05:23:24;94734.50;;;12.71;64.10
67545;BME280;54380;47.770;11.150;2023-05-20T05:25:53;94739.53;;;12.78;64.49
67545;BME280;54380;47.770;11.150;2023-05-20T05:28:20;94738.72;;;12.82;64.15
67545;BME280;54380;47.770;11.150;2023-05-20T05:30:46;94733.16;;;12.89;63.85
67545;BME280;54380;47.770;11.150;2023-05-20T05:33:13;94745.84;;;12.97;63.83
67545;BME280;54380;47.770;11.150;2023-05-20T05:35:40;94734.44;;;13.02;63.71
67545;BME280;54380;47.770;11.150;2023-05-20T05:38:06;94738.94;;;13.06;63.66
67545;BME280;54380;47.770;11.150;2023-05-20T05:40:33;94733.63;;;13.11;63.64
67545;BME280;54380;47.770;11.150;2023-05-20T05:43:02;94734.13;;;13.18;62.99
67545;BME280;54380;47.770;11.150;2023-05-20T05:45:29;94736.22;;;13.22;62.90
67545;BME280;54380;47.770;11.150;2023-05-20T05:47:56;94736.00;;;13.28;62.68
67545;BME280;54380;47.770;11.150;2023-05-20T05:50:24;94734.91;;;13.34;62.58
67545;BME280;54380;47.770;11.150;2023-05-20T05:52:51;94738.06;;;13.42;62.45
67545;BME280;54380;47.770;11.150;2023-05-20T05:55:19;94739.63;;;13.48;61.99
67545;BME280;54380;47.770;11.150;2023-05-20T05:57:45;94746.78;;;13.52;62.00
67545;BME280;54380;47.770;11.150;2023-05-20T06:00:16;94740.91;;;13.55;62.08
67545;BME280;54380;47.770;11.150;2023-05-20T06:02:43;94743.03;;;13.58;62.44
67545;BME280;54380;47.770;11.150;2023-05-20T06:05:12;94738.25;;;13.60;62.33
67545;BME280;54380;47.770;11.150;2023-05-20T06:07:38;94731.91;;;13.61;62.04
67545;BME280;54380;47.770;11.150;2023-05-20T06:10:06;94742.97;;;13.69;62.47
67545;BME280;54380;47.770;11.150;2023-05-20T06:12:32;94739.50;;;13.73;62.08
67545;BME280;54380;47.770;11.150;2023-05-20T06:14:59;94735.50;;;13.81;62.17
67545;BME280;54380;47.770;11.150;2023-05-20T06:17:28;94736.78;;;13.89;62.50
67545;BME280;54380;47.770;11.150;2023-05-20T06:19:55;94734.91;;;13.89;62.06
67545;BME280;54380;47.770;11.150;2023-05-20T06:22:21;94740.00;;;13.86;61.94
67545;BME280;54380;47.770;11.150;2023-05-20T06:24:48;94744.75;;;13.89;61.77
67545;BME280;54380;47.770;11.150;2023-05-20T06:27:15;94737.28;;;13.96;62.48
67545;BME280;54380;47.770;11.150;2023-05-20T06:29:41;94742.28;;;14.02;62.42
67545;BME280;54380;47.770;11.150;2023-05-20T06:32:09;94736.97;;;14.02;62.59
67545;BME280;54380;47.770;11.150;2023-05-20T06:34:38;94736.41;;;14.05;61.94
67545;BME280;54380;47.770;11.150;2023-05-20T06:37:05;94736.91;;;14.13;61.96
67545;BME280;54380;47.770;11.150;2023-05-20T06:39:32;94735.53;;;14.20;62.16
67545;BME280;54380;47.770;11.150;2023-05-20T06:41:59;94734.44;;;14.21;61.14
67545;BME280;54380;47.770;11.150;2023-05-20T06:44:27;94730.00;;;14.17;60.66
67545;BME280;54380;47.770;11.150;2023-05-20T06:47:00;94723.06;;;14.16;60.70
67545;BME280;54380;47.770;11.150;2023-05-20T06:49:27;94723.88;;;14.16;60.74
67545;BME280;54380;47.770;11.150;2023-05-20T06:51:55;94728.91;;;14.18;61.65
67545;BME280;54380;47.770;11.150;2023-05-20T06:54:22;94737.09;;;14.21;61.26
67545;BME280;54380;47.770;11.150;2023-05-20T06:56:49;94732.31;;;14.23;61.47
67545;BME280;54380;47.770;11.150;2023-05-20T06:59:16;94725.97;;;14.24;61.67
67545;BME280;54380;47.770;11.150;2023-05-20T07:01:43;94728.31;;;14.26;60.70
67545;BME280;54380;47.770;11.150;2023-05-20T07:04:10;94714.22;;;14.31;61.30
67545;BME280;54380;47.770;11.150;2023-05-20T07:06:37;94717.31;;;14.43;61.15
67545;BME280;54380;47.770;11.150;2023-05-20T07:09:05;94708.75;;;14.51;60.28
67545;BME280;54380;47.770;11.150;2023-05-20T07:11:32;94709.78;;;14.55;60.92
67545;BME280;54380;47.770;11.150;2023-05-20T07:13:59;94711.41;;;14.56;61.47
67545;BME280;54380;47.770;11.150;2023-05-20T07:16:27;94706.09;;;14.56;61.02
67545;BME280;54380;47.770;11.150;2023-05-20T07:18:55;94705.28;;;14.56;61.01
67545;BME280;54380;47.770;11.150;2023-05-20T07:21:22;94706.09;;;14.56;61.33
67545;BME280;54380;47.770;11.150;2023-05-20T07:24:13;94695.91;;;14.63;60.71
67545;BME280;54380;47.770;11.150;2023-05-20T07:26:40;94700.88;;;14.75;60.94
67545;BME280;54380;47.770;11.150;2023-05-20T07:29:07;94691.19;;;14.84;61.76
67545;BME280;54380;47.770;11.150;2023-05-20T07:31:36;94688.47;;;14.89;61.54
67545;BME280;54380;47.770;11.150;2023-05-20T07:34:03;94673.28;;;14.95;61.65
67545;BME280;54380;47.770;11.150;2023-05-20T07:36:30;94670.88;;;14.99;61.68
67545;BME280;54380;47.770;11.150;2023-05-20T07:39:01;94668.94;;;15.04;60.12
67545;BME280;54380;47.770;11.150;2023-05-20T07:41:35;94670.75;;;15.09;60.72
67545;BME280;54380;47.770;11.150;2023-05-20T07:44:03;94671.47;;;15.14;60.85
67545;BME280;54380;47.770;11.150;2023-05-20T07:46:32;94670.63;;;15.19;61.09
67545;BME280;54380;47.770;11.150;2023-05-20T07:48:59;94680.69;;;15.22;60.62
67545;BME280;54380;47.770;11.150;2023-05-20T07:51:26;94688.31;;;15.29;60.28
67545;BME280;54380;47.770;11.150;2023-05-20T07:53:53;94689.06;;;15.34;59.92
67545;BME280;54380;47.770;11.150;2023-05-20T07:56:19;94683.91;;;15.43;60.48
67545;BME280;54380;47.770;11.150;2023-05-20T07:58:52;94683.16;;;15.62;60.44
67545;BME280;54380;47.770;11.150;2023-05-20T08:01:21;94678.78;;;15.90;60.38
67545;BME280;54380;47.770;11.150;2023-05-20T08:03:48;94677.06;;;15.99;60.16
67545;BME280;54380;47.770;11.150;2023-05-20T08:06:18;94676.09;;;16.09;59.75
67545;BME280;54380;47.770;11.150;2023-05-20T08:08:50;94674.72;;;16.11;59.19
67545;BME280;54380;47.770;11.150;2023-05-20T08:26:34;94675.22;;;16.32;57.63
67545;BME280;54380;47.770;11.150;2023-05-20T08:29:16;94677.16;;;16.27;57.59
67545;BME280;54380;47.770;11.150;2023-05-20T08:31:58;94683.00;;;16.29;57.43
67545;BME280;54380;47.770;11.150;2023-05-20T08:34:39;94687.16;;;16.35;57.79
67545;BME280;54380;47.770;11.150;2023-05-20T08:37:21;94678.53;;;16.43;57.33
67545;BME280;54380;47.770;11.150;2023-05-20T08:40:02;94670.22;;;16.44;57.21
67545;BME280;54380;47.770;11.150;2023-05-20T09:09:03;94669.84;;;17.39;56.46
67545;BME280;54380;47.770;11.150;2023-05-20T09:11:44;94667.88;;;17.45;55.21
67545;BME280;54380;47.770;11.150;2023-05-20T09:14:25;94669.38;;;17.51;54.86
67545;BME280;54380;47.770;11.150;2023-05-20T09:17:08;94663.69;;;17.66;54.81
67545;BME280;54380;47.770;11.150;2023-05-20T09:19:50;94669.59;;;17.77;55.34
67545;BME280;54380;47.770;11.150;2023-05-20T09:22:32;94659.78;;;18.00;55.83
